sensor_id;sensor_type;location;lat;lon;timestamp;P1;durP1;ratioP1;P2;durP2;ratioP2
47529;SDS011;33272;51.922;7.730;2023-04-23T00:00:16;29.73;;;23.53;;
47529;SDS011;33272;51.922;7.730;2023-04-23T00:02:45;29.23;;;22.00;;
47529;SDS011;33272;51.922;7.730;2023-04-23T00:05:16;25.60;;;20.60;;
47529;SDS011;33272;51.922;7.730;2023-04-23T00:07:45;26.97;;;22.20;;
47529;SDS011;33272;51.922;7.730;2023-04-23T00:10:13;28.87;;;23.00;;
47529;SDS011;33272;51.922;7.730;2023-04-23T00:12:40;25.93;;;20.63;;
47529;SDS011;33272;51.922;7.730;2023-04-23T00:15:09;28.73;;;21.93;;
47529;SDS011;33272;51.922;7.730;2023-04-23T00:17:38;28.70;;;22.53;;
47529;SDS011;33272;51.922;7.730;2023-04-23T00:20:07;28.03;;;22.37;;
47529;SDS011;33272;51.922;7.730;2023-04-23T00:22:35;29.43;;;22.03;;
47529;SDS011;33272;51.922;7.730;2023-04-23T00:25:02;27.53;;;21.60;;
47529;SDS011;33272;51.922;7.730;2023-04-23T00:27:29;30.27;;;23.13;;
47529;SDS011;33272;51.922;7.730;2023-04-23T00:29:56;30.57;;;24.47;;
47529;SDS011;33272;51.922;7.730;2023-04-23T00:32:23;30.60;;;23.67;;
47529;SDS011;33272;51.922;7.730;2023-04-23T00:34:50;29.47;;;23.13;;
47529;SDS011;33272;51.922;7.730;2023-04-23T00:37:20;30.97;;;23.97;;
47529;SDS011;33272;51.922;7.730;2023-04-23T00:39:47;34.00;;;25.00;;
47529;SDS011;33272;51.922;7.730;2023-04-23T00:42:14;32.63;;;23.90;;
47529;SDS011;33272;51.922;7.730;2023-04-23T00:44:41;32.03;;;24.53;;
47529;SDS011;33272;51.922;7.730;2023-04-23T00:47:08;30.27;;;25.07;;
47529;SDS011;33272;51.922;7.730;2023-04-23T00:49:36;30.87;;;25.03;;
47529;SDS011;33272;51.922;7.730;2023-04-23T00:52:04;29.50;;;23.43;;
47529;SDS011;33272;51.922;7.730;2023-04-23T00:54:32;31.50;;;24.33;;
47529;SDS011;33272;51.922;7.730;2023-04-23T00:56:59;30.07;;;24.43;;
47529;SDS011;33272;51.922;7.730;2023-04-23T00:59:27;32.23;;;25.80;;
47529;SDS011;33272;51.922;7.730;2023-04-23T01:01:55;29.87;;;23.53;;
47529;SDS011;33272;51.922;7.730;2023-04-23T01:04:23;31.90;;;25.07;;
47529;SDS011;33272;51.922;7.730;2023-04-23T01:06:53;33.03;;;25.37;;
47529;SDS011;33272;51.922;7.730;2023-04-23T01:09:21;31.97;;;25.13;;
47529;SDS011;33272;51.922;7.730;2023-04-23T01:11:50;31.77;;;24.93;;
47529;SDS011;33272;51.922;7.730;2023-04-23T01:14:17;32.17;;;26.20;;
47529;SDS011;33272;51.922;7.730;2023-04-23T01:16:45;30.40;;;24.53;;
47529;SDS011;33272;51.922;7.730;2023-04-23T01:19:12;31.07;;;23.70;;
47529;SDS011;33272;51.922;7.730;2023-04-23T01:21:40;32.87;;;25.17;;
47529;SDS011;33272;51.922;7.730;2023-04-23T01:24:09;36.27;;;26.93;;
47529;SDS011;33272;51.922;7.730;2023-04-23T01:26:37;35.60;;;28.80;;
47529;SDS011;33272;51.922;7.730;2023-04-23T01:29:04;37.73;;;28.27;;
47529;SDS011;33272;51.922;7.730;2023-04-23T01:31:31;35.10;;;27.67;;
47529;SDS011;33272;51.922;7.730;2023-04-23T01:33:59;34.87;;;26.57;;
47529;SDS011;33272;51.922;7.730;2023-04-23T01:36:26;36.30;;;28.07;;
47529;SDS011;33272;51.922;7.730;2023-04-23T01:38:55;37.43;;;29.90;;
47529;SDS011;33272;51.922;7.730;2023-04-23T01:41:23;37.57;;;28.80;;
47529;SDS011;33272;51.922;7.730;2023-04-23T01:43:50;39.30;;;30.03;;
47529;SDS011;33272;51.922;7.730;2023-04-23T01:46:18;40.93;;;29.43;;
47529;SDS011;33272;51.922;7.730;2023-04-23T01:48:46;36.57;;;27.80;;
47529;SDS011;33272;51.922;7.730;2023-04-23T01:51:13;39.87;;;30.87;;
47529;SDS011;33272;51.922;7.730;2023-04-23T01:53:40;38.57;;;29.77;;
47529;SDS011;33272;51.922;7.730;2023-04-23T01:56:07;40.47;;;30.70;;
47529;SDS011;33272;51.922;7.730;2023-04-23T01:58:36;38.73;;;29.53;;
47529;SDS011;33272;51.922;7.730;2023-04-23T02:01:03;39.20;;;30.30;;
47529;SDS011;33272;51.922;7.730;2023-04-23T02:03:30;39.30;;;29.37;;
47529;SDS011;33272;51.922;7.730;2023-04-23T02:05:58;39.23;;;31.03;;
47529;SDS011;33272;51.922;7.730;2023-04-23T02:08:26;38.43;;;29.27;;
47529;SDS011;33272;51.922;7.730;2023-04-23T02:10:53;39.03;;;30.20;;
47529;SDS011;33272;51.922;7.730;2023-04-23T02:13:20;40.20;;;29.73;;
47529;SDS011;33272;51.922;7.730;2023-04-23T02:15:48;41.13;;;29.83;;
47529;SDS011;33272;51.922;7.730;2023-04-23T02:18:15;42.00;;;29.33;;
47529;SDS011;33272;51.922;7.730;2023-04-23T02:20:42;38.50;;;28.83;;
47529;SDS011;33272;51.922;7.730;2023-04-23T02:23:09;38.50;;;28.97;;
47529;SDS011;33272;51.922;7.730;2023-04-23T02:25:37;41.37;;;31.17;;
47529;SDS011;33272;51.922;7.730;2023-04-23T02:28:04;38.37;;;29.27;;
47529;SDS011;33272;51.922;7.730;2023-04-23T02:30:31;39.53;;;30.47;;
47529;SDS011;33272;51.922;7.730;2023-04-23T02:33:00;38.87;;;28.93;;
47529;SDS011;33272;51.922;7.730;2023-04-23T02:35:27;39.80;;;29.83;;
47529;SDS011;33272;51.922;7.730;2023-04-23T02:37:55;36.00;;;27.13;;
47529;SDS011;33272;51.922;7.730;2023-04-23T02:40:22;36.13;;;27.93;;
47529;SDS011;33272;51.922;7.730;2023-04-23T02:42:49;39.40;;;31.00;;
47529;SDS011;33272;51.922;7.730;2023-04-23T02:45:16;36.77;;;27.30;;
47529;SDS011;33272;51.922;7.730;2023-04-23T02:47:43;36.17;;;28.43;;
47529;SDS011;33272;51.922;7.730;2023-04-23T02:50:12;35.97;;;27.77;;
47529;SDS011;33272;51.922;7.730;2023-04-23T02:52:39;36.40;;;27.47;;
47529;SDS011;33272;51.922;7.730;2023-04-23T02:55:06;37.73;;;28.63;;
47529;SDS011;33272;51.922;7.730;2023-04-23T02:57:34;38.03;;;28.30;;
47529;SDS011;33272;51.922;7.730;2023-04-23T03:00:03;38.30;;;27.83;;
47529;SDS011;33272;51.922;7.730;2023-04-23T03:02:31;39.77;;;28.93;;
47529;SDS011;33272;51.922;7.730;2023-04-23T03:04:59;38.03;;;28.37;;
47529;SDS011;33272;51.922;7.730;2023-04-23T03:07:27;39.07;;;28.33;;
47529;SDS011;33272;51.922;7.730;2023-04-23T03:09:55;37.23;;;28.27;;
47529;SDS011;33272;51.922;7.730;2023-04-23T03:12:22;37.17;;;28.47;;
47529;SDS011;33272;51.922;7.730;2023-04-23T03:14:49;37.50;;;28.50;;
47529;SDS011;33272;51.922;7.730;2023-04-23T03:17:16;38.50;;;26.97;;
47529;SDS011;33272;51.922;7.730;2023-04-23T03:19:43;41.57;;;29.83;;
47529;SDS011;33272;51.922;7.730;2023-04-23T03:22:10;39.33;;;28.77;;
47529;SDS011;33272;51.922;7.730;2023-04-23T03:24:38;39.87;;;28.97;;
47529;SDS011;33272;51.922;7.730;2023-04-23T03:27:05;43.50;;;29.77;;
47529;SDS011;33272;51.922;7.730;2023-04-23T03:29:32;38.93;;;29.20;;
47529;SDS011;33272;51.922;7.730;2023-04-23T03:32:00;39.13;;;29.07;;
47529;SDS011;33272;51.922;7.730;2023-04-23T03:34:28;40.67;;;30.00;;
47529;SDS011;33272;51.922;7.730;2023-04-23T03:36:55;41.00;;;30.60;;
47529;SDS011;33272;51.922;7.730;2023-04-23T03:39:21;42.87;;;30.20;;
47529;SDS011;33272;51.922;7.730;2023-04-23T03:41:50;40.87;;;29.70;;
47529;SDS011;33272;51.922;7.730;2023-04-23T03:44:17;44.43;;;31.63;;
47529;SDS011;33272;51.922;7.730;2023-04-23T03:46:44;39.47;;;29.77;;
47529;SDS011;33272;51.922;7.730;2023-04-23T03:49:11;42.53;;;28.97;;
47529;SDS011;33272;51.922;7.730;2023-04-23T03:51:38;39.93;;;29.27;;
47529;SDS011;33272;51.922;7.730;2023-04-23T03:54:05;39.53;;;28.87;;
47529;SDS011;33272;51.922;7.730;2023-04-23T03:56:32;41.07;;;28.47;;
47529;SDS011;33272;51.922;7.730;2023-04-23T03:59:00;39.40;;;27.93;;
47529;SDS011;33272;51.922;7.730;2023-04-23T04:01:27;41.93;;;29.63;;
47529;SDS011;33272;51.922;7.730;2023-04-23T04:03:56;44.20;;;32.13;;
47529;SDS011;33272;51.922;7.730;2023-04-23T04:06:23;45.57;;;29.60;;
47529;SDS011;33272;51.922;7.730;2023-04-23T04:08:53;39.77;;;30.00;;
47529;SDS011;33272;51.922;7.730;2023-04-23T04:11:20;42.37;;;30.50;;
47529;SDS011;33272;51.922;7.730;2023-04-23T04:13:47;39.70;;;28.40;;
47529;SDS011;33272;51.922;7.730;2023-04-23T04:16:16;39.83;;;30.10;;
47529;SDS011;33272;51.922;7.730;2023-04-23T04:18:43;40.90;;;29.80;;
47529;SDS011;33272;51.922;7.730;2023-04-23T04:21:10;40.20;;;27.80;;
47529;SDS011;33272;51.922;7.730;2023-04-23T04:23:37;37.97;;;28.50;;
47529;SDS011;33272;51.922;7.730;2023-04-23T04:26:04;43.60;;;30.63;;
47529;SDS011;33272;51.922;7.730;2023-04-23T04:28:32;42.80;;;28.87;;
47529;SDS011;33272;51.922;7.730;2023-04-23T04:31:01;41.77;;;28.97;;
47529;SDS011;33272;51.922;7.730;2023-04-23T04:33:30;42.53;;;30.13;;
47529;SDS011;33272;51.922;7.730;2023-04-23T04:35:59;43.73;;;30.03;;
47529;SDS011;33272;51.922;7.730;2023-04-23T04:38:27;43.00;;;30.73;;
47529;SDS011;33272;51.922;7.730;2023-04-23T04:40:54;41.57;;;31.17;;
47529;SDS011;33272;51.922;7.730;2023-04-23T04:43:22;43.10;;;30.53;;
47529;SDS011;33272;51.922;7.730;2023-04-23T04:45:50;42.50;;;31.23;;
47529;SDS011;33272;51.922;7.730;2023-04-23T04:48:17;41.80;;;30.20;;
47529;SDS011;33272;51.922;7.730;2023-04-23T04:50:45;45.33;;;31.97;;
47529;SDS011;33272;51.922;7.730;2023-04-23T04:53:13;44.57;;;32.20;;
47529;SDS011;33272;51.922;7.730;2023-04-23T04:55:40;43.90;;;31.00;;
47529;SDS011;33272;51.922;7.730;2023-04-23T04:58:07;43.90;;;32.20;;
47529;SDS011;33272;51.922;7.730;2023-04-23T05:00:34;48.40;;;31.87;;
47529;SDS011;33272;51.922;7.730;2023-04-23T05:03:02;44.87;;;30.80;;
47529;SDS011;33272;51.922;7.730;2023-04-23T05:05:30;43.27;;;31.60;;
47529;SDS011;33272;51.922;7.730;2023-04-23T05:07:59;44.90;;;31.63;;
47529;SDS011;33272;51.922;7.730;2023-04-23T05:10:27;46.57;;;32.63;;
47529;SDS011;33272;51.922;7.730;2023-04-23T05:12:55;45.13;;;31.57;;
47529;SDS011;33272;51.922;7.730;2023-04-23T05:15:22;44.87;;;30.40;;
47529;SDS011;33272;51.922;7.730;2023-04-23T05:17:49;46.10;;;30.10;;
47529;SDS011;33272;51.922;7.730;2023-04-23T05:20:17;47.57;;;32.70;;
47529;SDS011;33272;51.922;7.730;2023-04-23T05:22:45;46.57;;;32.87;;
47529;SDS011;33272;51.922;7.730;2023-04-23T05:25:13;44.37;;;31.33;;
47529;SDS011;33272;51.922;7.730;2023-04-23T05:27:40;46.20;;;31.90;;
47529;SDS011;33272;51.922;7.730;2023-04-23T05:30:08;42.17;;;31.00;;
47529;SDS011;33272;51.922;7.730;2023-04-23T05:32:36;40.63;;;29.87;;
47529;SDS011;33272;51.922;7.730;2023-04-23T05:35:04;43.57;;;32.17;;
47529;SDS011;33272;51.922;7.730;2023-04-23T05:37:32;41.00;;;29.33;;
47529;SDS011;33272;51.922;7.730;2023-04-23T05:39:59;39.30;;;29.37;;
47529;SDS011;33272;51.922;7.730;2023-04-23T05:42:28;40.50;;;29.73;;
47529;SDS011;33272;51.922;7.730;2023-04-23T05:44:55;37.43;;;27.60;;
47529;SDS011;33272;51.922;7.730;2023-04-23T05:47:22;36.33;;;27.60;;
47529;SDS011;33272;51.922;7.730;2023-04-23T05:49:49;38.37;;;28.63;;
47529;SDS011;33272;51.922;7.730;2023-04-23T05:52:16;37.80;;;26.83;;
47529;SDS011;33272;51.922;7.730;2023-04-23T05:54:43;36.07;;;25.70;;
47529;SDS011;33272;51.922;7.730;2023-04-23T05:57:10;36.10;;;26.93;;
47529;SDS011;33272;51.922;7.730;2023-04-23T05:59:39;35.87;;;26.63;;
47529;SDS011;33272;51.922;7.730;2023-04-23T06:02:06;34.77;;;25.70;;
47529;SDS011;33272;51.922;7.730;2023-04-23T06:04:34;32.50;;;24.87;;
47529;SDS011;33272;51.922;7.730;2023-04-23T06:07:01;30.97;;;23.93;;
47529;SDS011;33272;51.922;7.730;2023-04-23T06:09:28;30.13;;;23.80;;
47529;SDS011;33272;51.922;7.730;2023-04-23T06:11:55;28.93;;;23.20;;
47529;SDS011;33272;51.922;7.730;2023-04-23T06:14:23;30.97;;;23.00;;
47529;SDS011;33272;51.922;7.730;2023-04-23T06:16:51;29.93;;;22.20;;
47529;SDS011;33272;51.922;7.730;2023-04-23T06:19:18;28.87;;;22.50;;
47529;SDS011;33272;51.922;7.730;2023-04-23T06:21:45;31.17;;;21.40;;
47529;SDS011;33272;51.922;7.730;2023-04-23T06:24:12;27.37;;;21.00;;
47529;SDS011;33272;51.922;7.730;2023-04-23T06:26:39;28.30;;;22.07;;
47529;SDS011;33272;51.922;7.730;2023-04-23T06:29:06;24.27;;;19.80;;
47529;SDS011;33272;51.922;7.730;2023-04-23T06:31:33;21.80;;;18.53;;
47529;SDS011;33272;51.922;7.730;2023-04-23T06:34:01;27.57;;;20.07;;
47529;SDS011;33272;51.922;7.730;2023-04-23T06:36:28;23.47;;;19.10;;
47529;SDS011;33272;51.922;7.730;2023-04-23T06:38:56;23.87;;;19.00;;
47529;SDS011;33272;51.922;7.730;2023-04-23T06:41:23;23.60;;;17.73;;
47529;SDS011;33272;51.922;7.730;2023-04-23T06:43:50;23.60;;;18.33;;
47529;SDS011;33272;51.922;7.730;2023-04-23T06:46:17;22.33;;;17.53;;
47529;SDS011;33272;51.922;7.730;2023-04-23T06:48:44;20.53;;;16.70;;
47529;SDS011;33272;51.922;7.730;2023-04-23T06:51:12;22.33;;;16.40;;
47529;SDS011;33272;51.922;7.730;2023-04-23T06:53:40;20.70;;;15.60;;
47529;SDS011;33272;51.922;7.730;2023-04-23T06:56:07;18.77;;;15.93;;
47529;SDS011;33272;51.922;7.730;2023-04-23T06:58:34;20.93;;;16.50;;
47529;SDS011;33272;51.922;7.730;2023-04-23T07:01:01;17.60;;;15.70;;
47529;SDS011;33272;51.922;7.730;2023-04-23T07:03:29;17.67;;;15.23;;
47529;SDS011;33272;51.922;7.730;2023-04-23T07:05:56;18.80;;;16.07;;
47529;SDS011;33272;51.922;7.730;2023-04-23T07:08:25;18.73;;;15.33;;
47529;SDS011;33272;51.922;7.730;2023-04-23T07:10:51;18.83;;;14.53;;
47529;SDS011;33272;51.922;7.730;2023-04-23T07:13:18;19.63;;;15.10;;
47529;SDS011;33272;51.922;7.730;2023-04-23T07:15:45;17.90;;;15.20;;
47529;SDS011;33272;51.922;7.730;2023-04-23T07:18:13;17.03;;;14.50;;
47529;SDS011;33272;51.922;7.730;2023-04-23T07:20:40;16.63;;;14.20;;
47529;SDS011;33272;51.922;7.730;2023-04-23T07:23:07;15.47;;;13.57;;
47529;SDS011;33272;51.922;7.730;2023-04-23T07:25:35;15.57;;;12.40;;
47529;SDS011;33272;51.922;7.730;2023-04-23T07:28:03;14.77;;;12.23;;
47529;SDS011;33272;51.922;7.730;2023-04-23T07:30:30;14.27;;;12.30;;
47529;SDS011;33272;51.922;7.730;2023-04-23T07:32:57;13.93;;;11.93;;
47529;SDS011;33272;51.922;7.730;2023-04-23T07:35:26;13.73;;;12.00;;
47529;SDS011;33272;51.922;7.730;2023-04-23T07:37:53;14.67;;;13.17;;
47529;SDS011;33272;51.922;7.730;2023-04-23T07:40:22;12.97;;;11.23;;
47529;SDS011;33272;51.922;7.730;2023-04-23T07:42:51;13.23;;;11.10;;
47529;SDS011;33272;51.922;7.730;2023-04-23T07:45:19;14.67;;;11.70;;
47529;SDS011;33272;51.922;7.730;2023-04-23T07:47:46;11.07;;;9.93;;
47529;SDS011;33272;51.922;7.730;2023-04-23T07:50:15;11.03;;;9.93;;
47529;SDS011;33272;51.922;7.730;2023-04-23T07:52:42;13.87;;;10.73;;
47529;SDS011;33272;51.922;7.730;2023-04-23T07:55:09;11.57;;;9.97;;
47529;SDS011;33272;51.922;7.730;2023-04-23T07:57:36;11.43;;;9.60;;
47529;SDS011;33272;51.922;7.730;2023-04-23T08:00:05;11.03;;;9.87;;
47529;SDS011;33272;51.922;7.730;2023-04-23T08:02:35;9.97;;;8.93;;
47529;SDS011;33272;51.922;7.730;2023-04-23T08:05:02;10.50;;;9.40;;
47529;SDS011;33272;51.922;7.730;2023-04-23T08:07:30;10.60;;;9.50;;
47529;SDS011;33272;51.922;7.730;2023-04-23T08:09:57;10.33;;;8.80;;
47529;SDS011;33272;51.922;7.730;2023-04-23T08:12:28;9.97;;;8.63;;
47529;SDS011;33272;51.922;7.730;2023-04-23T08:14:55;9.40;;;8.13;;
47529;SDS011;33272;51.922;7.730;2023-04-23T08:17:24;10.40;;;8.60;;
47529;SDS011;33272;51.922;7.730;2023-04-23T08:19:51;10.17;;;8.40;;
47529;SDS011;33272;51.922;7.730;2023-04-23T08:22:18;10.70;;;8.30;;
47529;SDS011;33272;51.922;7.730;2023-04-23T08:24:46;10.23;;;8.87;;
47529;SDS011;33272;51.922;7.730;2023-04-23T08:27:13;9.67;;;7.83;;
47529;SDS011;33272;51.922;7.730;2023-04-23T08:29:40;9.20;;;8.27;;
47529;SDS011;33272;51.922;7.730;2023-04-23T08:32:07;9.87;;;7.93;;
47529;SDS011;33272;51.922;7.730;2023-04-23T08:34:35;8.20;;;7.40;;
47529;SDS011;33272;51.922;7.730;2023-04-23T08:37:02;7.87;;;7.07;;
47529;SDS011;33272;51.922;7.730;2023-04-23T08:39:29;9.03;;;7.17;;
47529;SDS011;33272;51.922;7.730;2023-04-23T08:42:00;8.20;;;7.20;;
47529;SDS011;33272;51.922;7.730;2023-04-23T08:44:35;8.00;;;7.20;;
47529;SDS011;33272;51.922;7.730;2023-04-23T08:47:06;8.93;;;7.20;;
47529;SDS011;33272;51.922;7.730;2023-04-23T08:49:37;9.53;;;6.70;;
47529;SDS011;33272;51.922;7.730;2023-04-23T08:52:14;7.00;;;6.30;;
47529;SDS011;33272;51.922;7.730;2023-04-23T08:54:44;6.97;;;6.23;;
47529;SDS011;33272;51.922;7.730;2023-04-23T08:57:15;7.77;;;6.80;;
47529;SDS011;33272;51.922;7.730;2023-04-23T08:59:43;7.07;;;6.03;;
47529;SDS011;33272;51.922;7.730;2023-04-23T09:02:11;8.80;;;6.83;;
47529;SDS011;33272;51.922;7.730;2023-04-23T09:04:41;9.73;;;6.27;;
47529;SDS011;33272;51.922;7.730;2023-04-23T09:07:08;8.30;;;6.43;;
47529;SDS011;33272;51.922;7.730;2023-04-23T09:09:35;8.13;;;6.23;;
47529;SDS011;33272;51.922;7.730;2023-04-23T09:12:04;6.50;;;5.37;;
47529;SDS011;33272;51.922;7.730;2023-04-23T09:14:32;6.63;;;5.53;;
47529;SDS011;33272;51.922;7.730;2023-04-23T09:17:00;7.83;;;6.63;;
47529;SDS011;33272;51.922;7.730;2023-04-23T09:19:28;7.80;;;6.10;;
47529;SDS011;33272;51.922;7.730;2023-04-23T09:21:57;7.07;;;6.07;;
47529;SDS011;33272;51.922;7.730;2023-04-23T09:24:26;7.27;;;5.87;;
47529;SDS011;33272;51.922;7.730;2023-04-23T09:26:54;7.83;;;5.83;;
47529;SDS011;33272;51.922;7.730;2023-04-23T09:29:23;7.83;;;6.20;;
47529;SDS011;33272;51.922;7.730;2023-04-23T09:31:51;8.80;;;6.10;;
47529;SDS011;33272;51.922;7.730;2023-04-23T09:34:21;8.93;;;6.10;;
47529;SDS011;33272;51.922;7.730;2023-04-23T09:36:51;6.47;;;5.63;;
47529;SDS011;33272;51.922;7.730;2023-04-23T09:39:20;5.70;;;5.07;;
47529;SDS011;33272;51.922;7.730;2023-04-23T09:41:50;6.03;;;5.40;;
47529;SDS011;33272;51.922;7.730;2023-04-23T09:44:18;9.03;;;5.57;;
47529;SDS011;33272;51.922;7.730;2023-04-23T09:46:47;5.60;;;4.80;;
47529;SDS011;33272;51.922;7.730;2023-04-23T09:49:14;4.97;;;4.23;;
47529;SDS011;33272;51.922;7.730;2023-04-23T09:51:42;6.97;;;5.03;;
47529;SDS011;33272;51.922;7.730;2023-04-23T09:54:11;5.13;;;4.47;;
47529;SDS011;33272;51.922;7.730;2023-04-23T09:56:42;6.57;;;5.07;;
47529;SDS011;33272;51.922;7.730;2023-04-23T09:59:19;7.00;;;5.10;;
47529;SDS011;33272;51.922;7.730;2023-04-23T10:01:51;6.60;;;5.00;;
47529;SDS011;33272;51.922;7.730;2023-04-23T10:04:18;5.90;;;3.83;;
47529;SDS011;33272;51.922;7.730;2023-04-23T10:06:47;6.50;;;3.97;;
47529;SDS011;33272;51.922;7.730;2023-04-23T10:09:18;4.63;;;3.80;;
47529;SDS011;33272;51.922;7.730;2023-04-23T10:11:49;5.73;;;4.50;;
47529;SDS011;33272;51.922;7.730;2023-04-23T10:14:18;6.57;;;4.20;;
47529;SDS011;33272;51.922;7.730;2023-04-23T10:16:46;4.30;;;3.90;;
47529;SDS011;33272;51.922;7.730;2023-04-23T10:19:17;5.07;;;3.77;;
47529;SDS011;33272;51.922;7.730;2023-04-23T10:21:47;7.17;;;3.77;;
47529;SDS011;33272;51.922;7.730;2023-04-23T10:24:18;4.10;;;3.33;;
47529;SDS011;33272;51.922;7.730;2023-04-23T10:26:50;5.07;;;3.27;;
47529;SDS011;33272;51.922;7.730;2023-04-23T10:29:20;4.67;;;3.53;;
47529;SDS011;33272;51.922;7.730;2023-04-23T10:31:53;7.40;;;3.93;;
47529;SDS011;33272;51.922;7.730;2023-04-23T10:34:23;5.43;;;4.00;;
47529;SDS011;33272;51.922;7.730;2023-04-23T10:36:51;4.27;;;3.50;;
47529;SDS011;33272;51.922;7.730;2023-04-23T10:39:20;5.40;;;3.60;;
47529;SDS011;33272;51.922;7.730;2023-04-23T10:41:52;7.37;;;3.40;;
47529;SDS011;33272;51.922;7.730;2023-04-23T10:44:20;4.73;;;3.80;;
47529;SDS011;33272;51.922;7.730;2023-04-23T10:46:51;4.23;;;2.80;;
47529;SDS011;33272;51.922;7.730;2023-04-23T10:49:21;8.07;;;2.90;;
47529;SDS011;33272;51.922;7.730;2023-04-23T10:51:54;3.67;;;2.60;;
47529;SDS011;33272;51.922;7.730;2023-04-23T10:54:27;4.90;;;2.43;;
47529;SDS011;33272;51.922;7.730;2023-04-23T10:57:01;5.97;;;2.70;;
47529;SDS011;33272;51.922;7.730;2023-04-23T10:59:30;4.00;;;2.57;;
47529;SDS011;33272;51.922;7.730;2023-04-23T11:02:04;6.57;;;2.80;;
47529;SDS011;33272;51.922;7.730;2023-04-23T11:04:33;6.70;;;2.30;;
47529;SDS011;33272;51.922;7.730;2023-04-23T11:07:05;4.67;;;2.00;;
47529;SDS011;33272;51.922;7.730;2023-04-23T11:09:37;3.80;;;2.23;;
47529;SDS011;33272;51.922;7.730;2023-04-23T11:12:08;3.43;;;2.13;;
47529;SDS011;33272;51.922;7.730;2023-04-23T11:14:42;3.67;;;2.30;;
47529;SDS011;33272;51.922;7.730;2023-04-23T11:17:14;3.87;;;2.50;;
47529;SDS011;33272;51.922;7.730;2023-04-23T11:22:36;4.43;;;2.57;;
47529;SDS011;33272;51.922;7.730;2023-04-23T11:25:07;3.50;;;2.50;;
47529;SDS011;33272;51.922;7.730;2023-04-23T11:27:38;4.00;;;2.57;;
47529;SDS011;33272;51.922;7.730;2023-04-23T11:30:10;4.37;;;2.53;;
47529;SDS011;33272;51.922;7.730;2023-04-23T11:32:38;5.13;;;2.20;;
47529;SDS011;33272;51.922;7.730;2023-04-23T11:35:06;5.07;;;3.10;;
47529;SDS011;33272;51.922;7.730;2023-04-23T11:37:37;6.73;;;2.50;;
47529;SDS011;33272;51.922;7.730;2023-04-23T11:40:06;3.00;;;2.00;;
47529;SDS011;33272;51.922;7.730;2023-04-23T11:42:40;5.87;;;2.10;;
47529;SDS011;33272;51.922;7.730;2023-04-23T11:45:14;3.73;;;2.10;;
47529;SDS011;33272;51.922;7.730;2023-04-23T11:47:46;3.47;;;2.20;;
47529;SDS011;33272;51.922;7.730;2023-04-23T11:50:17;3.47;;;2.30;;
47529;SDS011;33272;51.922;7.730;2023-04-23T11:52:45;4.10;;;2.13;;
47529;SDS011;33272;51.922;7.730;2023-04-23T11:55:13;4.43;;;2.10;;
47529;SDS011;33272;51.922;7.730;2023-04-23T11:57:42;2.80;;;1.80;;
47529;SDS011;33272;51.922;7.730;2023-04-23T12:00:11;2.77;;;1.90;;
47529;SDS011;33272;51.922;7.730;2023-04-23T12:02:50;3.30;;;2.00;;
47529;SDS011;33272;51.922;7.730;2023-04-23T12:05:19;2.93;;;1.90;;
47529;SDS011;33272;51.922;7.730;2023-04-23T12:07:48;6.07;;;2.23;;
47529;SDS011;33272;51.922;7.730;2023-04-23T12:10:17;3.90;;;2.20;;
47529;SDS011;33272;51.922;7.730;2023-04-23T12:12:50;2.60;;;1.80;;
47529;SDS011;33272;51.922;7.730;2023-04-23T12:15:18;2.80;;;1.70;;
47529;SDS011;33272;51.922;7.730;2023-04-23T12:17:48;2.30;;;1.67;;
47529;SDS011;33272;51.922;7.730;2023-04-23T12:20:19;1.60;;;1.50;;
47529;SDS011;33272;51.922;7.730;2023-04-23T12:22:47;3.37;;;1.73;;
47529;SDS011;33272;51.922;7.730;2023-04-23T12:25:14;3.37;;;1.90;;
47529;SDS011;33272;51.922;7.730;2023-04-23T12:27:43;2.87;;;1.60;;
47529;SDS011;33272;51.922;7.730;2023-04-23T12:30:12;3.17;;;1.50;;
47529;SDS011;33272;51.922;7.730;2023-04-23T12:32:39;3.40;;;1.60;;
47529;SDS011;33272;51.922;7.730;2023-04-23T12:35:07;3.37;;;2.00;;
47529;SDS011;33272;51.922;7.730;2023-04-23T12:37:35;2.30;;;1.43;;
47529;SDS011;33272;51.922;7.730;2023-04-23T12:40:03;5.10;;;1.87;;
47529;SDS011;33272;51.922;7.730;2023-04-23T12:42:32;3.30;;;1.63;;
47529;SDS011;33272;51.922;7.730;2023-04-23T12:45:04;4.03;;;1.53;;
47529;SDS011;33272;51.922;7.730;2023-04-23T12:47:35;2.70;;;1.63;;
47529;SDS011;33272;51.922;7.730;2023-04-23T12:50:02;3.60;;;1.80;;
47529;SDS011;33272;51.922;7.730;2023-04-23T12:52:29;3.93;;;1.90;;
47529;SDS011;33272;51.922;7.730;2023-04-23T12:54:57;2.47;;;1.60;;
47529;SDS011;33272;51.922;7.730;2023-04-23T12:57:25;2.27;;;1.60;;
47529;SDS011;33272;51.922;7.730;2023-04-23T12:59:52;3.97;;;1.70;;
47529;SDS011;33272;51.922;7.730;2023-04-23T13:02:20;2.30;;;1.90;;
47529;SDS011;33272;51.922;7.730;2023-04-23T13:04:51;2.27;;;1.60;;
47529;SDS011;33272;51.922;7.730;2023-04-23T13:07:23;2.77;;;2.20;;
47529;SDS011;33272;51.922;7.730;2023-04-23T13:09:50;3.83;;;1.80;;
47529;SDS011;33272;51.922;7.730;2023-04-23T13:12:17;2.43;;;1.47;;
47529;SDS011;33272;51.922;7.730;2023-04-23T13:14:44;3.60;;;1.90;;
47529;SDS011;33272;51.922;7.730;2023-04-23T13:17:11;4.90;;;1.63;;
47529;SDS011;33272;51.922;7.730;2023-04-23T13:19:38;3.13;;;1.80;;
47529;SDS011;33272;51.922;7.730;2023-04-23T13:22:07;2.53;;;1.50;;
47529;SDS011;33272;51.922;7.730;2023-04-23T13:24:34;2.60;;;1.70;;
47529;SDS011;33272;51.922;7.730;2023-04-23T13:27:01;2.37;;;1.33;;
47529;SDS011;33272;51.922;7.730;2023-04-23T13:29:28;1.73;;;1.40;;
47529;SDS011;33272;51.922;7.730;2023-04-23T13:31:55;4.60;;;1.70;;
47529;SDS011;33272;51.922;7.730;2023-04-23T13:34:22;3.27;;;1.67;;
47529;SDS011;33272;51.922;7.730;2023-04-23T13:36:49;6.40;;;1.67;;
47529;SDS011;33272;51.922;7.730;2023-04-23T13:39:18;2.27;;;1.63;;
47529;SDS011;33272;51.922;7.730;2023-04-23T13:41:45;1.40;;;1.30;;
47529;SDS011;33272;51.922;7.730;2023-04-23T13:44:12;1.90;;;1.40;;
47529;SDS011;33272;51.922;7.730;2023-04-23T13:46:39;1.30;;;1.20;;
47529;SDS011;33272;51.922;7.730;2023-04-23T13:49:07;3.47;;;1.47;;
47529;SDS011;33272;51.922;7.730;2023-04-23T13:51:34;3.20;;;1.50;;
47529;SDS011;33272;51.922;7.730;2023-04-23T13:54:01;1.77;;;1.30;;
47529;SDS011;33272;51.922;7.730;2023-04-23T13:56:30;1.37;;;1.27;;
47529;SDS011;33272;51.922;7.730;2023-04-23T13:58:57;2.20;;;1.30;;
47529;SDS011;33272;51.922;7.730;2023-04-23T14:01:26;2.57;;;1.40;;
47529;SDS011;33272;51.922;7.730;2023-04-23T14:03:54;1.20;;;1.10;;
47529;SDS011;33272;51.922;7.730;2023-04-23T14:06:21;2.20;;;1.40;;
47529;SDS011;33272;51.922;7.730;2023-04-23T14:08:48;1.77;;;1.50;;
47529;SDS011;33272;51.922;7.730;2023-04-23T14:11:15;1.33;;;1.23;;
47529;SDS011;33272;51.922;7.730;2023-04-23T14:13:44;2.33;;;1.60;;
47529;SDS011;33272;51.922;7.730;2023-04-23T14:16:11;2.47;;;1.50;;
47529;SDS011;33272;51.922;7.730;2023-04-23T14:18:38;2.23;;;1.80;;
47529;SDS011;33272;51.922;7.730;2023-04-23T14:21:05;2.40;;;1.50;;
47529;SDS011;33272;51.922;7.730;2023-04-23T14:23:42;2.43;;;1.40;;
47529;SDS011;33272;51.922;7.730;2023-04-23T14:26:20;2.20;;;1.50;;
47529;SDS011;33272;51.922;7.730;2023-04-23T14:28:56;2.33;;;1.40;;
47529;SDS011;33272;51.922;7.730;2023-04-23T14:31:28;3.00;;;1.57;;
47529;SDS011;33272;51.922;7.730;2023-04-23T14:33:55;1.90;;;1.40;;
47529;SDS011;33272;51.922;7.730;2023-04-23T14:36:23;2.50;;;1.30;;
47529;SDS011;33272;51.922;7.730;2023-04-23T14:38:51;2.97;;;1.50;;
47529;SDS011;33272;51.922;7.730;2023-04-23T14:41:18;2.43;;;1.20;;